sensor_id;sensor_type;location;lat;lon;timestamp;temperature;humidity
21271;DHT22;10795;50.796;3.860;2023-04-26T00:01:07;5.70;99.90
21271;DHT22;10795;50.796;3.860;2023-04-26T00:03:33;5.30;99.90
21271;DHT22;10795;50.796;3.860;2023-04-26T00:06:01;4.90;99.90
21271;DHT22;10795;50.796;3.860;2023-04-26T00:08:30;4.60;99.90
21271;DHT22;10795;50.796;3.860;2023-04-26T00:10:56;4.70;99.90
21271;DHT22;10795;50.796;3.860;2023-04-26T00:13:21;4.70;99.90
21271;DHT22;10795;50.796;3.860;2023-04-26T00:15:48;5.10;99.90
21271;DHT22;10795;50.796;3.860;2023-04-26T00:18:13;4.80;99.90
21271;DHT22;10795;50.796;3.860;2023-04-26T00:20:39;4.30;99.90
21271;DHT22;10795;50.796;3.860;2023-04-26T00:23:06;4.30;99.90
21271;DHT22;10795;50.796;3.860;2023-04-26T00:25:33;4.30;99.90
21271;DHT22;10795;50.796;3.860;2023-04-26T00:27:59;4.10;99.90
21271;DHT22;10795;50.796;3.860;2023-04-26T00:30:26;4.20;99.90
21271;DHT22;10795;50.796;3.860;2023-04-26T00:32:52;4.20;99.90
21271;DHT22;10795;50.796;3.860;2023-04-26T00:35:18;4.00;99.90
21271;DHT22;10795;50.796;3.860;2023-04-26T00:37:44;3.70;99.90
21271;DHT22;10795;50.796;3.860;2023-04-26T00:40:12;3.80;99.90
21271;DHT22;10795;50.796;3.860;2023-04-26T00:42:38;3.80;99.90
21271;DHT22;10795;50.796;3.860;2023-04-26T00:45:05;3.80;99.90
21271;DHT22;10795;50.796;3.860;2023-04-26T00:47:31;3.70;99.90
21271;DHT22;10795;50.796;3.860;2023-04-26T00:49:57;3.70;99.90
21271;DHT22;10795;50.796;3.860;2023-04-26T00:52:26;3.70;99.90
21271;DHT22;10795;50.796;3.860;2023-04-26T00:54:52;3.60;99.90
21271;DHT22;10795;50.796;3.860;2023-04-26T00:57:18;3.80;99.90
21271;DHT22;10795;50.796;3.860;2023-04-26T00:59:44;3.70;99.90
21271;DHT22;10795;50.796;3.860;2023-04-26T01:02:10;3.70;99.90
21271;DHT22;10795;50.796;3.860;2023-04-26T01:04:39;3.70;99.90
21271;DHT22;10795;50.796;3.860;2023-04-26T01:07:06;3.50;99.90
21271;DHT22;10795;50.796;3.860;2023-04-26T01:09:32;3.50;99.90
21271;DHT22;10795;50.796;3.860;2023-04-26T01:12:00;3.60;99.90
21271;DHT22;10795;50.796;3.860;2023-04-26T01:14:27;3.70;99.90
21271;DHT22;10795;50.796;3.860;2023-04-26T01:16:53;3.60;99.90
21271;DHT22;10795;50.796;3.860;2023-04-26T01:19:19;3.70;99.90
21271;DHT22;10795;50.796;3.860;2023-04-26T01:21:45;3.30;99.90
21271;DHT22;10795;50.796;3.860;2023-04-26T01:24:12;2.80;99.90
21271;DHT22;10795;50.796;3.860;2023-04-26T01:26:38;2.70;99.90
21271;DHT22;10795;50.796;3.860;2023-04-26T01:29:13;2.70;99.90
21271;DHT22;10795;50.796;3.860;2023-04-26T01:31:40;2.90;99.90
21271;DHT22;10795;50.796;3.860;2023-04-26T01:34:06;3.10;99.90
21271;DHT22;10795;50.796;3.860;2023-04-26T01:36:31;3.10;99.90
21271;DHT22;10795;50.796;3.860;2023-04-26T01:38:58;3.00;99.90
21271;DHT22;10795;50.796;3.860;2023-04-26T01:41:23;2.80;99.90
21271;DHT22;10795;50.796;3.860;2023-04-26T01:43:49;2.90;99.90
21271;DHT22;10795;50.796;3.860;2023-04-26T01:46:17;3.00;99.90
21271;DHT22;10795;50.796;3.860;2023-04-26T01:48:45;3.10;99.90
21271;DHT22;10795;50.796;3.860;2023-04-26T01:51:14;3.10;99.90
21271;DHT22;10795;50.796;3.860;2023-04-26T01:53:41;3.10;99.90
21271;DHT22;10795;50.796;3.860;2023-04-26T01:56:07;3.00;99.90
21271;DHT22;10795;50.796;3.860;2023-04-26T01:58:33;2.80;99.90
21271;DHT22;10795;50.796;3.860;2023-04-26T02:01:05;3.00;99.90
21271;DHT22;10795;50.796;3.860;2023-04-26T02:03:32;3.10;99.90
21271;DHT22;10795;50.796;3.860;2023-04-26T02:05:58;3.10;99.90
21271;DHT22;10795;50.796;3.860;2023-04-26T02:08:25;2.90;99.90
21271;DHT22;10795;50.796;3.860;2023-04-26T02:10:51;2.90;99.90
21271;DHT22;10795;50.796;3.860;2023-04-26T02:13:17;2.80;99.90
21271;DHT22;10795;50.796;3.860;2023-04-26T02:15:47;2.60;99.90
21271;DHT22;10795;50.796;3.860;2023-04-26T02:18:14;2.50;99.90
21271;DHT22;10795;50.796;3.860;2023-04-26T02:20:40;2.50;99.90
21271;DHT22;10795;50.796;3.860;2023-04-26T02:23:11;2.60;99.90
21271;DHT22;10795;50.796;3.860;2023-04-26T02:25:37;2.60;99.90
21271;DHT22;10795;50.796;3.860;2023-04-26T02:28:03;2.80;99.90
21271;DHT22;10795;50.796;3.860;2023-04-26T02:30:30;2.80;99.90
21271;DHT22;10795;50.796;3.860;2023-04-26T02:32:56;2.90;99.90
21271;DHT22;10795;50.796;3.860;2023-04-26T02:35:22;3.00;99.90
21271;DHT22;10795;50.796;3.860;2023-04-26T02:37:48;3.00;99.90
21271;DHT22;10795;50.796;3.860;2023-04-26T02:40:18;2.90;99.90
21271;DHT22;10795;50.796;3.860;2023-04-26T02:42:44;2.90;99.90
21271;DHT22;10795;50.796;3.860;2023-04-26T02:45:10;2.80;99.90
21271;DHT22;10795;50.796;3.860;2023-04-26T02:47:38;2.80;99.90
21271;DHT22;10795;50.796;3.860;2023-04-26T02:50:05;2.90;99.90
21271;DHT22;10795;50.796;3.860;2023-04-26T02:52:32;2.90;99.90
21271;DHT22;10795;50.796;3.860;2023-04-26T02:54:58;3.00;99.90
21271;DHT22;10795;50.796;3.860;2023-04-26T02:57:25;3.00;99.90
21271;DHT22;10795;50.796;3.860;2023-04-26T02:59:51;3.10;99.90
21271;DHT22;10795;50.796;3.860;2023-04-26T03:02:17;3.20;99.90
21271;DHT22;10795;50.796;3.860;2023-04-26T03:04:43;3.00;99.90
21271;DHT22;10795;50.796;3.860;2023-04-26T03:07:09;2.70;99.90
21271;DHT22;10795;50.796;3.860;2023-04-26T03:09:35;2.50;99.90
21271;DHT22;10795;50.796;3.860;2023-04-26T03:12:07;2.50;99.90
21271;DHT22;10795;50.796;3.860;2023-04-26T03:14:34;2.70;99.90
21271;DHT22;10795;50.796;3.860;2023-04-26T03:17:00;2.80;99.90
21271;DHT22;10795;50.796;3.860;2023-04-26T03:19:28;2.80;99.90
21271;DHT22;10795;50.796;3.860;2023-04-26T03:21:55;2.60;99.90
21271;DHT22;10795;50.796;3.860;2023-04-26T03:24:21;2.60;99.90
21271;DHT22;10795;50.796;3.860;2023-04-26T03:26:47;2.60;99.90
21271;DHT22;10795;50.796;3.860;2023-04-26T03:29:14;2.40;99.90
21271;DHT22;10795;50.796;3.860;2023-04-26T03:31:40;2.70;99.90
21271;DHT22;10795;50.796;3.860;2023-04-26T03:34:06;2.70;99.90
21271;DHT22;10795;50.796;3.860;2023-04-26T03:36:33;2.70;99.90
21271;DHT22;10795;50.796;3.860;2023-04-26T03:39:00;2.70;99.90
21271;DHT22;10795;50.796;3.860;2023-04-26T03:41:26;2.80;99.90
21271;DHT22;10795;50.796;3.860;2023-04-26T03:43:53;2.70;99.90
21271;DHT22;10795;50.796;3.860;2023-04-26T03:46:19;2.80;99.90
21271;DHT22;10795;50.796;3.860;2023-04-26T03:48:46;2.80;99.90
21271;DHT22;10795;50.796;3.860;2023-04-26T03:51:12;3.00;99.90
21271;DHT22;10795;50.796;3.860;2023-04-26T03:53:40;3.10;99.90
21271;DHT22;10795;50.796;3.860;2023-04-26T03:56:07;3.10;99.90
21271;DHT22;10795;50.796;3.860;2023-04-26T03:58:34;3.20;99.90
21271;DHT22;10795;50.796;3.860;2023-04-26T04:01:01;3.20;99.90
21271;DHT22;10795;50.796;3.860;2023-04-26T04:03:30;3.10;99.90
21271;DHT22;10795;50.796;3.860;2023-04-26T04:05:56;2.80;99.90
21271;DHT22;10795;50.796;3.860;2023-04-26T04:08:22;2.80;99.90
21271;DHT22;10795;50.796;3.860;2023-04-26T04:10:50;2.70;99.90
21271;DHT22;10795;50.796;3.860;2023-04-26T04:13:16;2.70;99.90
21271;DHT22;10795;50.796;3.860;2023-04-26T04:15:48;2.70;99.90
21271;DHT22;10795;50.796;3.860;2023-04-26T04:18:16;2.60;99.90
21271;DHT22;10795;50.796;3.860;2023-04-26T04:20:42;2.30;99.90
21271;DHT22;10795;50.796;3.860;2023-04-26T04:23:08;2.30;99.90
21271;DHT22;10795;50.796;3.860;2023-04-26T04:25:35;2.40;99.90
21271;DHT22;10795;50.796;3.860;2023-04-26T04:28:05;2.40;99.90
21271;DHT22;10795;50.796;3.860;2023-04-26T04:30:43;2.60;99.90
21271;DHT22;10795;50.796;3.860;2023-04-26T04:33:12;2.60;99.90
21271;DHT22;10795;50.796;3.860;2023-04-26T04:35:39;2.40;99.90
21271;DHT22;10795;50.796;3.860;2023-04-26T04:38:08;2.60;99.90
21271;DHT22;10795;50.796;3.860;2023-04-26T04:40:34;2.70;99.90
21271;DHT22;10795;50.796;3.860;2023-04-26T04:43:00;2.70;99.90
21271;DHT22;10795;50.796;3.860;2023-04-26T04:45:31;2.60;99.90
21271;DHT22;10795;50.796;3.860;2023-04-26T04:47:58;2.50;99.90
21271;DHT22;10795;50.796;3.860;2023-04-26T04:50:25;2.40;99.90
21271;DHT22;10795;50.796;3.860;2023-04-26T04:52:54;2.60;99.90
21271;DHT22;10795;50.796;3.860;2023-04-26T04:55:20;2.80;99.90
21271;DHT22;10795;50.796;3.860;2023-04-26T04:57:46;2.80;99.90
21271;DHT22;10795;50.796;3.860;2023-04-26T05:00:12;2.90;99.90
21271;DHT22;10795;50.796;3.860;2023-04-26T05:02:53;2.70;99.90
21271;DHT22;10795;50.796;3.860;2023-04-26T05:05:22;2.60;99.90
21271;DHT22;10795;50.796;3.860;2023-04-26T05:07:48;2.90;99.90
21271;DHT22;10795;50.796;3.860;2023-04-26T05:10:14;3.20;99.90
21271;DHT22;10795;50.796;3.860;2023-04-26T05:12:40;3.10;99.90
21271;DHT22;10795;50.796;3.860;2023-04-26T05:15:06;2.90;99.90
21271;DHT22;10795;50.796;3.860;2023-04-26T05:17:32;2.90;99.90
21271;DHT22;10795;50.796;3.860;2023-04-26T05:20:07;3.00;99.90
21271;DHT22;10795;50.796;3.860;2023-04-26T05:22:33;3.10;99.90
21271;DHT22;10795;50.796;3.860;2023-04-26T05:25:01;3.20;99.90
21271;DHT22;10795;50.796;3.860;2023-04-26T05:27:30;3.30;99.90
21271;DHT22;10795;50.796;3.860;2023-04-26T05:30:21;3.30;99.90
21271;DHT22;10795;50.796;3.860;2023-04-26T05:33:06;3.30;99.90
21271;DHT22;10795;50.796;3.860;2023-04-26T05:35:35;3.50;99.90
21271;DHT22;10795;50.796;3.860;2023-04-26T05:38:06;3.70;99.90
21271;DHT22;10795;50.796;3.860;2023-04-26T05:40:41;3.60;99.90
21271;DHT22;10795;50.796;3.860;2023-04-26T05:43:14;3.60;99.90
21271;DHT22;10795;50.796;3.860;2023-04-26T05:45:53;3.60;99.90
21271;DHT22;10795;50.796;3.860;2023-04-26T05:48:23;3.70;99.90
21271;DHT22;10795;50.796;3.860;2023-04-26T05:50:49;3.80;99.90
21271;DHT22;10795;50.796;3.860;2023-04-26T05:53:18;4.10;99.90
21271;DHT22;10795;50.796;3.860;2023-04-26T05:55:44;4.30;99.90
21271;DHT22;10795;50.796;3.860;2023-04-26T05:58:13;4.70;99.90
21271;DHT22;10795;50.796;3.860;2023-04-26T06:00:39;4.90;99.90
21271;DHT22;10795;50.796;3.860;2023-04-26T06:03:06;5.10;99.90
21271;DHT22;10795;50.796;3.860;2023-04-26T06:05:32;5.70;99.90
21271;DHT22;10795;50.796;3.860;2023-04-26T06:08:01;6.10;99.90
21271;DHT22;10795;50.796;3.860;2023-04-26T06:10:26;6.00;99.90
21271;DHT22;10795;50.796;3.860;2023-04-26T06:12:58;6.20;99.90
21271;DHT22;10795;50.796;3.860;2023-04-26T06:15:30;6.10;99.90
21271;DHT22;10795;50.796;3.860;2023-04-26T06:17:58;6.00;99.90
21271;DHT22;10795;50.796;3.860;2023-04-26T06:20:24;5.20;99.90
21271;DHT22;10795;50.796;3.860;2023-04-26T06:22:51;4.90;99.90
21271;DHT22;10795;50.796;3.860;2023-04-26T06:25:17;5.20;99.90
21271;DHT22;10795;50.796;3.860;2023-04-26T06:27:43;5.60;99.90
21271;DHT22;10795;50.796;3.860;2023-04-26T06:30:11;5.50;99.90
21271;DHT22;10795;50.796;3.860;2023-04-26T06:32:41;6.00;99.90
21271;DHT22;10795;50.796;3.860;2023-04-26T06:35:07;6.50;99.90
21271;DHT22;10795;50.796;3.860;2023-04-26T06:37:33;6.80;99.90
21271;DHT22;10795;50.796;3.860;2023-04-26T06:40:05;6.60;99.90
21271;DHT22;10795;50.796;3.860;2023-04-26T06:42:51;6.00;99.90
21271;DHT22;10795;50.796;3.860;2023-04-26T06:45:40;6.00;99.90
21271;DHT22;10795;50.796;3.860;2023-04-26T06:48:30;6.20;99.90
21271;DHT22;10795;50.796;3.860;2023-04-26T06:53:56;7.30;99.90
21271;DHT22;10795;50.796;3.860;2023-04-26T06:56:38;8.00;99.90
21271;DHT22;10795;50.796;3.860;2023-04-26T06:59:05;8.40;99.90
21271;DHT22;10795;50.796;3.860;2023-04-26T07:01:39;8.40;99.90
21271;DHT22;10795;50.796;3.860;2023-04-26T07:04:15;8.00;99.90
21271;DHT22;10795;50.796;3.860;2023-04-26T07:06:48;7.50;99.90
21271;DHT22;10795;50.796;3.860;2023-04-26T07:09:14;7.30;99.90
21271;DHT22;10795;50.796;3.860;2023-04-26T07:11:40;7.20;99.90
21271;DHT22;10795;50.796;3.860;2023-04-26T07:14:06;7.30;99.90
21271;DHT22;10795;50.796;3.860;2023-04-26T07:16:36;7.30;99.90
21271;DHT22;10795;50.796;3.860;2023-04-26T07:19:07;7.40;99.90
21271;DHT22;10795;50.796;3.860;2023-04-26T07:21:35;7.70;99.90
21271;DHT22;10795;50.796;3.860;2023-04-26T07:24:01;8.00;99.90
21271;DHT22;10795;50.796;3.860;2023-04-26T07:26:29;8.00;99.90
21271;DHT22;10795;50.796;3.860;2023-04-26T07:28:55;7.90;99.90
21271;DHT22;10795;50.796;3.860;2023-04-26T07:31:21;8.10;99.90
21271;DHT22;10795;50.796;3.860;2023-04-26T07:33:47;8.10;99.90
21271;DHT22;10795;50.796;3.860;2023-04-26T07:36:13;8.80;99.90
21271;DHT22;10795;50.796;3.860;2023-04-26T07:38:39;9.00;99.90
21271;DHT22;10795;50.796;3.860;2023-04-26T07:41:05;9.00;99.90
21271;DHT22;10795;50.796;3.860;2023-04-26T07:43:31;9.10;99.90
21271;DHT22;10795;50.796;3.860;2023-04-26T07:46:00;9.20;99.90
21271;DHT22;10795;50.796;3.860;2023-04-26T07:48:26;9.10;99.90
21271;DHT22;10795;50.796;3.860;2023-04-26T07:50:52;9.10;99.90
21271;DHT22;10795;50.796;3.860;2023-04-26T07:53:18;9.40;99.90
21271;DHT22;10795;50.796;3.860;2023-04-26T07:55:46;9.70;99.90
21271;DHT22;10795;50.796;3.860;2023-04-26T07:58:12;9.40;99.90
21271;DHT22;10795;50.796;3.860;2023-04-26T08:00:39;9.80;99.90
21271;DHT22;10795;50.796;3.860;2023-04-26T08:03:05;10.20;99.90
21271;DHT22;10795;50.796;3.860;2023-04-26T08:05:32;10.80;99.90
21271;DHT22;10795;50.796;3.860;2023-04-26T08:07:58;10.60;99.90
21271;DHT22;10795;50.796;3.860;2023-04-26T08:10:26;11.10;99.90
21271;DHT22;10795;50.796;3.860;2023-04-26T08:12:52;11.40;99.90
21271;DHT22;10795;50.796;3.860;2023-04-26T08:15:20;11.10;99.90
21271;DHT22;10795;50.796;3.860;2023-04-26T08:17:46;11.60;99.90
21271;DHT22;10795;50.796;3.860;2023-04-26T08:20:15;10.80;99.90
21271;DHT22;10795;50.796;3.860;2023-04-26T08:22:41;11.20;99.90
21271;DHT22;10795;50.796;3.860;2023-04-26T08:25:10;11.50;99.90
21271;DHT22;10795;50.796;3.860;2023-04-26T08:27:38;10.70;99.90
21271;DHT22;10795;50.796;3.860;2023-04-26T08:30:06;11.60;99.90
21271;DHT22;10795;50.796;3.860;2023-04-26T08:32:32;11.70;99.90
21271;DHT22;10795;50.796;3.860;2023-04-26T08:35:00;11.50;99.90
21271;DHT22;10795;50.796;3.860;2023-04-26T08:37:27;12.10;99.90
21271;DHT22;10795;50.796;3.860;2023-04-26T08:40:05;12.50;99.90
21271;DHT22;10795;50.796;3.860;2023-04-26T08:42:44;11.30;99.90
21271;DHT22;10795;50.796;3.860;2023-04-26T08:45:13;12.30;99.90
21271;DHT22;10795;50.796;3.860;2023-04-26T08:50:08;13.10;99.90
21271;DHT22;10795;50.796;3.860;2023-04-26T08:52:35;12.60;99.90
21271;DHT22;10795;50.796;3.860;2023-04-26T08:55:01;10.90;99.90
21271;DHT22;10795;50.796;3.860;2023-04-26T08:57:39;12.40;99.90
21271;DHT22;10795;50.796;3.860;2023-04-26T09:00:18;13.10;99.90
21271;DHT22;10795;50.796;3.860;2023-04-26T09:02:54;14.10;99.90
21271;DHT22;10795;50.796;3.860;2023-04-26T09:05:20;14.70;99.90
21271;DHT22;10795;50.796;3.860;2023-04-26T09:07:49;15.00;99.90
21271;DHT22;10795;50.796;3.860;2023-04-26T09:10:19;14.70;99.90
21271;DHT22;10795;50.796;3.860;2023-04-26T09:12:51;15.10;99.90
21271;DHT22;10795;50.796;3.860;2023-04-26T09:15:23;15.60;99.90
21271;DHT22;10795;50.796;3.860;2023-04-26T09:17:53;15.40;99.90
21271;DHT22;10795;50.796;3.860;2023-04-26T09:20:28;15.60;99.90
21271;DHT22;10795;50.796;3.860;2023-04-26T09:23:03;16.20;99.90
21271;DHT22;10795;50.796;3.860;2023-04-26T09:25:31;16.30;99.90
21271;DHT22;10795;50.796;3.860;2023-04-26T09:28:00;16.80;99.90
21271;DHT22;10795;50.796;3.860;2023-04-26T09:30:26;16.90;99.90
21271;DHT22;10795;50.796;3.860;2023-04-26T09:35:21;17.20;99.90
21271;DHT22;10795;50.796;3.860;2023-04-26T09:37:54;16.00;99.90
21271;DHT22;10795;50.796;3.860;2023-04-26T09:40:21;15.20;99.90
21271;DHT22;10795;50.796;3.860;2023-04-26T09:43:09;15.90;99.90
21271;DHT22;10795;50.796;3.860;2023-04-26T09:45:48;15.60;99.90
21271;DHT22;10795;50.796;3.860;2023-04-26T09:53:45;17.80;99.90
21271;DHT22;10795;50.796;3.860;2023-04-26T09:56:15;18.00;99.90
21271;DHT22;10795;50.796;3.860;2023-04-26T10:01:17;17.60;99.90
21271;DHT22;10795;50.796;3.860;2023-04-26T10:04:09;14.50;99.90
21271;DHT22;10795;50.796;3.860;2023-04-26T10:06:38;16.70;99.90
21271;DHT22;10795;50.796;3.860;2023-04-26T10:09:10;15.90;99.90
21271;DHT22;10795;50.796;3.860;2023-04-26T10:11:45;16.80;99.90
21271;DHT22;10795;50.796;3.860;2023-04-26T10:14:21;19.30;99.90
21271;DHT22;10795;50.796;3.860;2023-04-26T10:16:49;20.40;99.90
21271;DHT22;10795;50.796;3.860;2023-04-26T10:19:25;21.10;99.90
21271;DHT22;10795;50.796;3.860;2023-04-26T10:22:00;21.40;99.90
21271;DHT22;10795;50.796;3.860;2023-04-26T10:24:34;20.40;99.90
21271;DHT22;10795;50.796;3.860;2023-04-26T10:27:06;21.60;99.90
21271;DHT22;10795;50.796;3.860;2023-04-26T10:36:03;22.70;99.90
21271;DHT22;10795;50.796;3.860;2023-04-26T10:38:38;22.40;99.90
21271;DHT22;10795;50.796;3.860;2023-04-26T10:46:53;22.80;99.90
21271;DHT22;10795;50.796;3.860;2023-04-26T10:49:24;23.40;99.90
21271;DHT22;10795;50.796;3.860;2023-04-26T10:54:49;23.30;99.90
21271;DHT22;10795;50.796;3.860;2023-04-26T10:57:18;23.30;99.90
21271;DHT22;10795;50.796;3.860;2023-04-26T11:02:56;23.40;99.90
21271;DHT22;10795;50.796;3.860;2023-04-26T11:08:16;23.70;99.90
21271;DHT22;10795;50.796;3.860;2023-04-26T11:10:49;24.40;99.90
21271;DHT22;10795;50.796;3.860;2023-04-26T11:13:16;24.70;99.90
21271;DHT22;10795;50.796;3.860;2023-04-26T11:16:06;24.80;99.90
21271;DHT22;10795;50.796;3.860;2023-04-26T11:18:30;24.90;99.90
21271;DHT22;10795;50.796;3.860;2023-04-26T11:20:57;21.80;99.90
21271;DHT22;10795;50.796;3.860;2023-04-26T11:23:23;19.80;96.20
21271;DHT22;10795;50.796;3.860;2023-04-26T11:25:49;19.50;99.90
21271;DHT22;10795;50.796;3.860;2023-04-26T11:28:19;22.20;99.90
21271;DHT22;10795;50.796;3.860;2023-04-26T11:30:48;22.40;99.90
21271;DHT22;10795;50.796;3.860;2023-04-26T11:33:18;23.10;99.90
21271;DHT22;10795;50.796;3.860;2023-04-26T11:35:50;23.40;99.90
21271;DHT22;10795;50.796;3.860;2023-04-26T11:38:20;23.40;99.90
21271;DHT22;10795;50.796;3.860;2023-04-26T11:40:52;22.60;95.20
21271;DHT22;10795;50.796;3.860;2023-04-26T11:43:18;22.90;99.90
21271;DHT22;10795;50.796;3.860;2023-04-26T11:45:44;22.30;99.90
21271;DHT22;10795;50.796;3.860;2023-04-26T11:48:11;23.00;99.90
21271;DHT22;10795;50.796;3.860;2023-04-26T11:50:37;23.30;99.90
21271;DHT22;10795;50.796;3.860;2023-04-26T11:53:04;22.40;99.90
21271;DHT22;10795;50.796;3.860;2023-04-26T11:55:30;22.90;99.90
21271;DHT22;10795;50.796;3.860;2023-04-26T12:11:59;20.80;88.50
21271;DHT22;10795;50.796;3.860;2023-04-26T12:15:07;22.90;99.90
21271;DHT22;10795;50.796;3.860;2023-04-26T12:18:07;23.80;99.90
21271;DHT22;10795;50.796;3.860;2023-04-26T12:20:42;24.10;99.90
21271;DHT22;10795;50.796;3.860;2023-04-26T12:23:14;24.40;99.90
21271;DHT22;10795;50.796;3.860;2023-04-26T12:25:50;24.50;99.90
21271;DHT22;10795;50.796;3.860;2023-04-26T12:28:17;24.70;99.90
21271;DHT22;10795;50.796;3.860;2023-04-26T12:30:52;24.90;99.90
21271;DHT22;10795;50.796;3.860;2023-04-26T12:33:25;24.00;99.90
21271;DHT22;10795;50.796;3.860;2023-04-26T12:35:51;24.40;99.90
21271;DHT22;10795;50.796;3.860;2023-04-26T12:38:17;24.20;99.90
21271;DHT22;10795;50.796;3.860;2023-04-26T12:40:43;24.40;99.90
21271;DHT22;10795;50.796;3.860;2023-04-26T12:43:09;23.00;99.90
21271;DHT22;10795;50.796;3.860;2023-04-26T12:45:38;21.10;83.70
21271;DHT22;10795;50.796;3.860;2023-04-26T12:48:10;20.70;99.90
21271;DHT22;10795;50.796;3.860;2023-04-26T12:50:39;21.30;99.90
21271;DHT22;10795;50.796;3.860;2023-04-26T12:53:05;22.80;99.90
21271;DHT22;10795;50.796;3.860;2023-04-26T13:20:36;23.20;99.90
21271;DHT22;10795;50.796;3.860;2023-04-26T13:26:55;19.50;80.50
21271;DHT22;10795;50.796;3.860;2023-04-26T13:29:42;20.30;99.90
21271;DHT22;10795;50.796;3.860;2023-04-26T13:32:11;20.40;98.60
21271;DHT22;10795;50.796;3.860;2023-04-26T13:38:17;19.60;99.90
21271;DHT22;10795;50.796;3.860;2023-04-26T13:40:57;20.40;79.10
21271;DHT22;10795;50.796;3.860;2023-04-26T13:43:57;20.70;99.90
21271;DHT22;10795;50.796;3.860;2023-04-26T13:47:09;21.20;99.90
21271;DHT22;10795;50.796;3.860;2023-04-26T13:57:23;20.30;99.90
21271;DHT22;10795;50.796;3.860;2023-04-26T14:00:05;19.70;99.90
21271;DHT22;10795;50.796;3.860;2023-04-26T14:03:21;19.80;99.90
21271;DHT22;10795;50.796;3.860;2023-04-26T14:06:00;21.10;96.40
21271;DHT22;10795;50.796;3.860;2023-04-26T14:12:03;19.50;99.90
21271;DHT22;10795;50.796;3.860;2023-04-26T14:14:34;20.20;99.90
21271;DHT22;10795;50.796;3.860;2023-04-26T14:17:03;21.00;99.90
21271;DHT22;10795;50.796;3.860;2023-04-26T14:19:58;19.70;99.90
21271;DHT22;10795;50.796;3.860;2023-04-26T14:22:27;20.30;99.90
21271;DHT22;10795;50.796;3.860;2023-04-26T14:24:55;21.70;99.90
21271;DHT22;10795;50.796;3.860;2023-04-26T14:27:21;21.80;97.70
21271;DHT22;10795;50.796;3.860;2023-04-26T14:29:47;20.20;96.70
21271;DHT22;10795;50.796;3.860;2023-04-26T14:32:13;20.70;99.90
21271;DHT22;10795;50.796;3.860;2023-04-26T14:34:38;21.60;99.90
21271;DHT22;10795;50.796;3.860;2023-04-26T14:37:07;21.50;99.90
21271;DHT22;10795;50.796;3.860;2023-04-26T14:39:33;21.10;99.90
21271;DHT22;10795;50.796;3.860;2023-04-26T14:42:05;20.20;83.10
21271;DHT22;10795;50.796;3.860;2023-04-26T14:44:36;17.70;99.90
21271;DHT22;10795;50.796;3.860;2023-04-26T14:47:02;17.70;99.90
21271;DHT22;10795;50.796;3.860;2023-04-26T14:49:28;17.80;99.90
21271;DHT22;10795;50.796;3.860;2023-04-26T14:52:01;18.90;99.90
21271;DHT22;10795;50.796;3.860;2023-04-26T14:54:47;19.30;99.90
21271;DHT22;10795;50.796;3.860;2023-04-26T14:57:13;20.70;99.90
21271;DHT22;10795;50.796;3.860;2023-04-26T14:59:48;19.80;99.90
21271;DHT22;10795;50.796;3.860;2023-04-26T15:02:28;19.60;99.90
21271;DHT22;10795;50.796;3.860;2023-04-26T15:04:54;20.00;99.90
21271;DHT22;10795;50.796;3.860;2023-04-26T15:07:19;20.10;99.90
21271;DHT22;10795;50.796;3.860;2023-04-26T15:09:45;19.00;97.00
21271;DHT22;10795;50.796;3.860;2023-04-26T15:12:11;17.60;97.80
21271;DHT22;10795;50.796;3.860;2023-04-26T15:14:37;18.10;99.90
21271;DHT22;10795;50.796;3.860;2023-04-26T15:17:03;18.00;99.90
21271;DHT22;10795;50.796;3.860;2023-04-26T15:19:28;19.00;99.90
21271;DHT22;10795;50.796;3.860;2023-04-26T15:21:54;18.80;99.90
21271;DHT22;10795;50.796;3.860;2023-04-26T15:24:20;18.10;99.90
21271;DHT22;10795;50.796;3.860;2023-04-26T15:26:46;17.80;99.90
21271;DHT22;10795;50.796;3.860;2023-04-26T15:29:11;19.00;99.90
21271;DHT22;10795;50.796;3.860;2023-04-26T15:31:38;19.50;99.90
21271;DHT22;10795;50.796;3.860;2023-04-26T15:34:03;19.40;99.90
21271;DHT22;10795;50.796;3.860;2023-04-26T15:36:29;19.30;99.90
21271;DHT22;10795;50.796;3.860;2023-04-26T15:38:56;18.60;99.90
21271;DHT22;10795;50.796;3.860;2023-04-26T15:41:22;19.00;99.90
21271;DHT22;10795;50.796;3.860;2023-04-26T15:43:51;18.50;99.90
21271;DHT22;10795;50.796;3.860;2023-04-26T15:46:17;19.00;99.90
21271;DHT22;10795;50.796;3.860;2023-04-26T15:48:43;18.80;99.90
21271;DHT22;10795;50.796;3.860;2023-04-26T15:51:08;18.70;99.90
21271;DHT22;10795;50.796;3.860;2023-04-26T15:53:34;18.40;99.90
21271;DHT22;10795;50.796;3.860;2023-04-26T15:56:00;18.40;99.90
21271;DHT22;10795;50.796;3.860;2023-04-26T15:58:26;17.80;99.90
21271;DHT22;10795;50.796;3.860;2023-04-26T16:00:51;18.10;99.90
21271;DHT22;10795;50.796;3.860;2023-04-26T16:03:17;18.00;99.90
21271;DHT22;10795;50.796;3.860;2023-04-26T16:05:43;18.20;99.90
21271;DHT22;10795;50.796;3.860;2023-04-26T16:08:08;17.40;99.90
21271;DHT22;10795;50.796;3.860;2023-04-26T16:10:34;17.40;99.90
21271;DHT22;10795;50.796;3.860;2023-04-26T16:13:00;17.20;99.90
21271;DHT22;10795;50.796;3.860;2023-04-26T16:15:26;17.10;99.90
21271;DHT22;10795;50.796;3.860;2023-04-26T16:17:52;16.50;99.90
21271;DHT22;10795;50.796;3.860;2023-04-26T16:20:17;16.60;99.90
21271;DHT22;10795;50.796;3.860;2023-04-26T16:22:43;16.60;99.90
21271;DHT22;10795;50.796;3.860;2023-04-26T16:25:09;16.80;99.90
21271;DHT22;10795;50.796;3.860;2023-04-26T16:27:34;16.40;99.90
21271;DHT22;10795;50.796;3.860;2023-04-26T16:30:00;16.50;99.90
21271;DHT22;10795;50.796;3.860;2023-04-26T16:32:26;16.60;99.90
21271;DHT22;10795;50.796;3.860;2023-04-26T16:34:52;16.10;99.90
21271;DHT22;10795;50.796;3.860;2023-04-26T16:37:18;16.40;99.90
21271;DHT22;10795;50.796;3.860;2023-04-26T16:39:43;16.70;99.90
21271;DHT22;10795;50.796;3.860;2023-04-26T16:42:12;16.60;99.90
21271;DHT22;10795;50.796;3.860;2023-04-26T16:44:38;16.40;99.90
21271;DHT22;10795;50.796;3.860;2023-04-26T16:47:04;16.60;99.90
21271;DHT22;10795;50.796;3.860;2023-04-26T16:49:31;16.20;99.90
21271;DHT22;10795;50.796;3.860;2023-04-26T16:51:57;15.90;99.90
21271;DHT22;10795;50.796;3.860;2023-04-26T16:54:26;15.90;99.90
21271;DHT22;10795;50.796;3.860;2023-04-26T16:56:52;16.10;99.90
21271;DHT22;10795;50.796;3.860;2023-04-26T16:59:18;15.60;99.90
21271;DHT22;10795;50.796;3.860;2023-04-26T17:01:44;15.30;99.90
21271;DHT22;10795;50.796;3.860;2023-04-26T17:04:11;14.90;99.90
21271;DHT22;10795;50.796;3.860;2023-04-26T17:06:37;14.70;99.90
21271;DHT22;10795;50.796;3.860;2023-04-26T17:09:03;14.40;99.90
21271;DHT22;10795;50.796;3.860;2023-04-26T17:11:29;14.70;99.90
21271;DHT22;10795;50.796;3.860;2023-04-26T17:13:55;15.20;99.90
21271;DHT22;10795;50.796;3.860;2023-04-26T17:16:21;15.10;99.90
21271;DHT22;10795;50.796;3.860;2023-04-26T17:18:47;15.50;99.90
21271;DHT22;10795;50.796;3.860;2023-04-26T17:21:12;16.00;99.90
21271;DHT22;10795;50.796;3.860;2023-04-26T17:23:38;14.80;99.90